CZFN/ZFN METAR and TAF weather

Enter ICAO airport designator
Station Type Date Time Source
CZFN METAR 2019/02/23 00:00 UTC NOAA

CZFN 230000Z 36004KT 310V020 20SM SCT071 M17/M21 A3046 RMK AC3 -16.0 / -19.7 / TR / SNW CVR / MUCH LOOSE / LAST STFD OBS/NEXT 251600Z SLP329


Station Type Date Time Source
CZFN Decoded METAR 2019/02/23 00:00 UTC NOAA

Fort Norman Airport, Canada (CZFN) 64-55N 125-34W
Feb 22, 2019 - 07:00 PM EST / 2019.02.23 0000 UTC
Wind: from the N (360 degrees) at 5 MPH (4 KT) (direction variable):0
Visibility: 20 mile(s):0
Sky conditions: partly cloudy
Temperature: 1 F (-17 C)
Windchill: -9 F (-23 C):2
Dew Point: -5 F (-21 C)
Relative Humidity: 71%
Pressure (altimeter): 30.46 in. Hg (1031 hPa)
ob: CZFN 230000Z 36004KT 310V020 20SM SCT071 M17/M21 A3046 RMK AC3 -16.0 / -19.7 / TR / SNW CVR / MUCH LOOSE / LAST STFD OBS/NEXT 251600Z SLP329
cycle: 0

Station Type Date Time Source
CZFN TAF UTC NOAA

Error!


Example: see airport list